Time;durP1;ratioP1;P1;durP2;ratioP2;P2;SDS_P1;SDS_P2;PMS_P1;PMS_P2;Temp;Humidity;BMP_temperature;BMP_pressure;BME280_temperature;BME280_humidity;BME280_pressure;Samples;Min_cycle;Max_cycle;Signal;HPM_P1;HPM_P2
2021/10/14 00:01:33;;;;;;;25.92;16.07;;;;;;;7.67;94.56;99584.16;1788256;80;20990;-78
2021/10/14 00:03:59;;;;;;;23.42;16.82;;;;;;;7.66;94.64;99583.05;1810695;77;21514;-81
2021/10/14 00:06:25;;;;;;;18.92;15.90;;;;;;;7.64;94.62;99585.95;1841944;77;21659;-79
2021/10/14 00:08:52;;;;;;;23.32;17.48;;;;;;;7.65;94.63;99580.89;1823746;77;21016;-79
2021/10/14 00:11:18;;;;;;;22.52;15.93;;;;;;;7.66;94.62;99591.08;1843238;77;21469;-81
2021/10/14 00:13:44;;;;;;;19.90;16.05;;;;;;;7.63;94.62;99593.68;1788065;80;21718;-79
2021/10/14 00:16:12;;;;;;;22.67;15.95;;;;;;;7.62;94.57;99581.89;1783965;78;21002;-78
2021/10/14 00:18:38;;;;;;;22.98;14.53;;;;;;;7.61;94.59;99586.42;1799320;78;21045;-79
2021/10/14 00:21:05;;;;;;;18.57;14.30;;;;;;;7.60;94.56;99587.47;1795062;79;21002;-78
2021/10/14 00:23:31;;;;;;;21.30;14.25;;;;;;;7.61;94.64;99586.95;1780740;79;21086;-78
2021/10/14 00:25:58;;;;;;;21.62;15.88;;;;;;;7.63;94.67;99583.50;1801503;79;21482;-78
2021/10/14 00:28:24;;;;;;;18.57;15.00;;;;;;;7.63;94.62;99592.34;1774758;79;21014;-78
2021/10/14 00:30:51;;;;;;;17.77;13.68;;;;;;;7.62;94.46;99595.27;1800692;79;20976;-77
2021/10/14 00:33:17;;;;;;;23.22;15.35;;;;;;;7.59;94.51;99592.52;1801343;79;20995;-78
2021/10/14 00:35:43;;;;;;;18.92;13.40;;;;;;;7.58;94.58;99586.08;1801542;79;21050;-79
2021/10/14 00:38:10;;;;;;;16.32;12.78;;;;;;;7.59;94.70;99582.34;1801403;79;21718;-78
2021/10/14 00:40:37;;;;;;;20.27;15.53;;;;;;;7.58;94.68;99585.53;1800835;79;21508;-78
2021/10/14 00:43:04;;;;;;;17.15;12.50;;;;;;;7.58;94.75;99590.09;1775575;79;21679;-79
2021/10/14 00:45:30;;;;;;;14.87;12.25;;;;;;;7.56;94.77;99586.31;1720357;82;20944;-77
2021/10/14 00:47:56;;;;;;;15.40;12.28;;;;;;;7.56;94.73;99594.86;1745234;82;21549;-79
2021/10/14 00:50:23;;;;;;;17.90;12.18;;;;;;;7.55;94.77;99600.73;1723440;82;21064;-79
2021/10/14 00:52:51;;;;;;;17.07;12.45;;;;;;;7.55;94.67;99595.38;1724000;82;21001;-85
2021/10/14 00:55:18;;;;;;;15.80;11.50;;;;;;;7.54;94.54;99604.97;1723633;82;21007;-82
2021/10/14 00:57:46;;;;;;;17.75;13.18;;;;;;;7.55;94.48;99598.58;1748470;81;21004;-84
2021/10/14 01:00:12;;;;;;;20.97;11.33;;;;;;;7.54;94.35;99595.08;1723841;82;20932;-83
2021/10/14 01:02:38;;;;;;;16.23;11.93;;;;;;;7.54;94.22;99600.43;1725269;82;21031;-83
2021/10/14 01:05:06;;;;;;;15.85;11.53;;;;;;;7.53;94.01;99609.50;1726690;79;21822;-81
2021/10/14 01:07:32;;;;;;;14.68;12.47;;;;;;;7.51;93.88;99610.27;1727713;81;20837;-79
2021/10/14 01:09:59;;;;;;;16.90;12.53;;;;;;;7.51;93.95;99619.64;1727314;81;20991;-81
2021/10/14 01:12:26;;;;;;;13.43;10.95;;;;;;;7.52;93.88;99625.81;1725995;82;21537;-82
2021/10/14 01:14:54;;;;;;;15.05;11.18;;;;;;;7.52;93.83;99619.12;1748684;81;20938;-85
2021/10/14 01:17:21;;;;;;;13.70;11.03;;;;;;;7.52;93.75;99617.78;1745288;82;20980;-83
2021/10/14 01:19:47;;;;;;;19.92;11.57;;;;;;;7.48;93.65;99626.80;1723681;82;21058;-81
2021/10/14 01:22:14;;;;;;;15.35;10.75;;;;;;;7.47;93.67;99635.87;1735339;81;20945;-80
2021/10/14 01:24:41;;;;;;;13.80;9.53;;;;;;;7.46;93.58;99630.22;1722705;82;21627;-77
2021/10/14 01:27:08;;;;;;;14.47;10.03;;;;;;;7.47;93.56;99627.02;1744553;82;21154;-73
2021/10/14 01:29:35;;;;;;;13.72;10.35;;;;;;;7.48;93.55;99630.81;1744812;81;21548;-72
2021/10/14 01:32:02;;;;;;;15.45;11.05;;;;;;;7.50;93.50;99627.89;1744676;81;20980;-74
2021/10/14 01:34:29;;;;;;;10.98;8.98;;;;;;;7.51;93.43;99630.86;1722358;82;20994;-73
2021/10/14 01:36:55;;;;;;;15.55;11.03;;;;;;;7.50;93.36;99627.89;1745006;82;21586;-74
2021/10/14 01:39:22;;;;;;;15.95;10.30;;;;;;;7.49;93.34;99623.58;1723613;82;21640;-74
2021/10/14 01:41:49;;;;;;;13.93;10.78;;;;;;;7.49;93.36;99633.76;1747983;81;20936;-73
2021/10/14 01:44:16;;;;;;;10.90;8.90;;;;;;;7.49;93.29;99637.77;1723301;81;21018;-73
2021/10/14 01:46:43;;;;;;;13.78;10.18;;;;;;;7.48;93.39;99646.88;1727411;82;21020;-73
2021/10/14 01:49:09;;;;;;;15.58;10.05;;;;;;;7.50;93.38;99654.64;1724125;82;20972;-75
2021/10/14 01:51:36;;;;;;;15.48;10.95;;;;;;;7.49;93.33;99654.34;1723567;82;21044;-73
2021/10/14 01:54:02;;;;;;;14.85;9.83;;;;;;;7.45;93.38;99654.82;1744873;82;20934;-77
2021/10/14 01:56:28;;;;;;;14.87;10.28;;;;;;;7.45;93.43;99665.52;1744665;81;20964;-77
2021/10/14 01:58:55;;;;;;;16.65;10.98;;;;;;;7.45;93.50;99660.69;1745405;81;21094;-77
2021/10/14 02:01:23;;;;;;;15.20;9.80;;;;;;;7.47;93.41;99660.47;1744995;81;21003;-79
2021/10/14 02:03:50;;;;;;;13.98;9.98;;;;;;;7.47;93.40;99675.19;1723519;82;21331;-77
2021/10/14 02:06:16;;;;;;;12.73;9.93;;;;;;;7.45;93.21;99674.89;1744893;81;20996;-78
2021/10/14 02:08:43;;;;;;;16.30;8.65;;;;;;;7.44;93.20;99671.09;1723754;82;21011;-77
2021/10/14 02:11:09;;;;;;;12.68;9.30;;;;;;;7.41;93.26;99672.39;1723883;82;21056;-78
2021/10/14 02:13:36;;;;;;;11.25;8.95;;;;;;;7.41;93.32;99666.21;1723638;82;20940;-76
2021/10/14 02:16:03;;;;;;;14.68;9.35;;;;;;;7.41;93.38;99674.23;1745273;82;21174;-76
2021/10/14 02:18:30;;;;;;;11.68;10.18;;;;;;;7.42;93.38;99671.86;1744846;82;21472;-76
2021/10/14 02:20:57;;;;;;;14.78;9.68;;;;;;;7.42;93.45;99678.03;1704567;83;21524;-79
2021/10/14 02:23:23;;;;;;;15.15;10.28;;;;;;;7.42;93.29;99671.34;1748920;80;21007;-78
2021/10/14 02:25:49;;;;;;;13.08;9.03;;;;;;;7.42;93.22;99666.52;1758578;81;21023;-78
2021/10/14 02:28:18;;;;;;;9.90;8.28;;;;;;;7.42;93.24;99677.22;1736506;81;21717;-78
2021/10/14 02:30:44;;;;;;;14.87;9.50;;;;;;;7.41;93.16;99684.42;1758443;81;20928;-78
2021/10/14 02:33:10;;;;;;;13.80;9.53;;;;;;;7.41;93.15;99687.10;1758249;81;21006;-78
2021/10/14 02:35:37;;;;;;;11.48;9.25;;;;;;;7.43;93.17;99693.57;1809097;79;21070;-77
2021/10/14 02:38:03;;;;;;;10.25;8.88;;;;;;;7.43;93.03;99696.25;1788614;79;21494;-78
2021/10/14 02:40:30;;;;;;;15.13;9.73;;;;;;;7.41;92.88;99694.31;1766131;79;21019;-78
2021/10/14 02:42:56;;;;;;;11.75;8.35;;;;;;;7.38;92.86;99700.95;1800625;79;21532;-78
2021/10/14 02:45:22;;;;;;;9.00;7.97;;;;;;;7.37;92.97;99711.87;1810199;78;21003;-78
2021/10/14 02:47:48;;;;;;;9.70;8.40;;;;;;;7.36;93.12;99708.89;1809077;79;20931;-77
2021/10/14 02:50:15;;;;;;;8.75;7.85;;;;;;;7.37;93.12;99710.53;1809530;79;21028;-77
2021/10/14 02:52:41;;;;;;;10.90;8.48;;;;;;;7.38;92.90;99700.12;1809243;79;20996;-78
2021/10/14 02:55:08;;;;;;;9.25;8.38;;;;;;;7.37;92.84;99707.86;1787760;79;21057;-78
2021/10/14 02:57:34;;;;;;;9.45;8.45;;;;;;;7.36;92.74;99703.02;1783124;80;21005;-77
2021/10/14 03:00:01;;;;;;;9.48;8.43;;;;;;;7.35;92.69;99723.30;1789403;79;21010;-78
2021/10/14 03:02:27;;;;;;;12.95;9.33;;;;;;;7.33;92.61;99718.20;1811672;79;21002;-74
2021/10/14 03:04:54;;;;;;;12.68;7.75;;;;;;;7.31;92.70;99720.28;1789200;79;21126;-75
2021/10/14 03:07:20;;;;;;;13.40;9.08;;;;;;;7.28;92.57;99714.58;1809961;78;20991;-76
2021/10/14 03:09:47;;;;;;;8.50;7.37;;;;;;;7.26;92.66;99719.33;1809207;79;21201;-76
2021/10/14 03:12:13;;;;;;;13.32;9.40;;;;;;;7.24;92.66;99712.06;1809088;79;21070;-78
2021/10/14 03:14:39;;;;;;;10.40;8.58;;;;;;;7.24;92.66;99718.75;1788440;79;21573;-79
2021/10/14 03:17:06;;;;;;;13.75;9.48;;;;;;;7.20;92.67;99722.38;1809269;79;21560;-79
2021/10/14 03:19:32;;;;;;;15.53;8.95;;;;;;;7.14;92.67;99731.33;1807767;79;21504;-79
2021/10/14 03:21:58;;;;;;;11.33;8.45;;;;;;;7.10;92.74;99744.05;1804265;78;21060;-79
2021/10/14 03:24:24;;;;;;;10.18;9.18;;;;;;;7.07;92.84;99736.45;1775185;79;20931;-79
2021/10/14 03:26:51;;;;;;;10.72;7.72;;;;;;;7.03;92.95;99752.14;1756452;80;21047;-79
2021/10/14 03:29:17;;;;;;;10.25;8.50;;;;;;;7.00;92.98;99743.25;1779016;80;21071;-78
2021/10/14 03:31:43;;;;;;;10.50;8.48;;;;;;;6.96;92.95;99744.72;1756696;80;21014;-77
2021/10/14 03:34:10;;;;;;;13.48;10.08;;;;;;;6.88;92.90;99745.03;1779165;80;21015;-78
2021/10/14 03:36:36;;;;;;;14.95;9.00;;;;;;;6.84;92.97;99749.20;1782819;79;20992;-81
2021/10/14 03:39:03;;;;;;;12.65;9.38;;;;;;;6.76;93.07;99745.50;1768220;79;20987;-81
2021/10/14 03:41:30;;;;;;;12.82;9.68;;;;;;;6.73;93.22;99746.75;1811873;78;21017;-80
2021/10/14 03:43:56;;;;;;;12.25;10.30;;;;;;;6.69;93.30;99756.25;1783123;79;20876;-80
2021/10/14 03:46:22;;;;;;;14.28;8.55;;;;;;;6.64;93.33;99743.26;1758182;80;21073;-81
2021/10/14 03:48:49;;;;;;;16.02;9.15;;;;;;;6.60;93.43;99751.42;1780324;80;21046;-78
2021/10/14 03:51:15;;;;;;;11.33;9.85;;;;;;;6.56;93.50;99755.89;1793628;79;20971;-78
2021/10/14 03:53:42;;;;;;;10.55;8.23;;;;;;;6.51;93.56;99762.41;1778985;80;21725;-78
2021/10/14 03:56:10;;;;;;;10.63;9.45;;;;;;;6.46;93.72;99752.09;1767327;80;46468;-78
2021/10/14 03:58:36;;;;;;;13.43;8.83;;;;;;;6.42;93.92;99759.73;1778992;80;20959;-78
2021/10/14 04:01:03;;;;;;;13.00;9.75;;;;;;;6.38;94.03;99759.07;1789346;79;30184;-79
2021/10/14 04:03:29;;;;;;;12.05;9.73;;;;;;;6.32;94.15;99765.28;1781910;80;20929;-78
2021/10/14 04:05:56;;;;;;;11.22;9.25;;;;;;;6.26;94.29;99766.16;1776550;80;21765;-78
2021/10/14 04:08:24;;;;;;;15.30;10.18;;;;;;;6.22;94.46;99764.97;1792844;79;20930;-79
2021/10/14 04:10:50;;;;;;;11.10;10.05;;;;;;;6.19;94.65;99764.08;1781696;80;21466;-79
2021/10/14 04:13:16;;;;;;;12.45;10.38;;;;;;;6.17;94.76;99766.96;1792185;79;20986;-78
2021/10/14 04:15:48;;;;;;;12.82;11.08;;;;;;;6.17;94.83;99770.97;1793045;79;20882;-79
2021/10/14 04:18:15;;;;;;;15.45;10.63;;;;;;;6.13;94.93;99779.94;1782023;80;21096;-83
2021/10/14 04:20:42;;;;;;;14.18;10.70;;;;;;;6.08;94.86;99782.45;1793527;79;20891;-83
2021/10/14 04:23:09;;;;;;;12.25;10.60;;;;;;;6.02;95.08;99793.98;1789324;79;21501;-81
2021/10/14 04:25:35;;;;;;;12.33;9.80;;;;;;;5.97;95.24;99789.81;1764963;80;21009;-84
2021/10/14 04:28:04;;;;;;;13.70;9.80;;;;;;;5.95;95.44;99792.39;1738795;81;21517;-84
2021/10/14 04:30:33;;;;;;;13.15;9.88;;;;;;;5.93;95.61;99796.63;1749259;82;21328;-83
2021/10/14 04:33:00;;;;;;;12.58;11.28;;;;;;;5.92;95.79;99795.50;1729390;79;20957;-82
2021/10/14 04:35:26;;;;;;;16.70;10.60;;;;;;;5.91;95.84;99799.20;1768839;80;20995;-83
2021/10/14 04:37:53;;;;;;;12.05;9.30;;;;;;;5.88;95.89;99811.14;1755679;81;21041;-81
2021/10/14 04:40:20;;;;;;;8.95;7.87;;;;;;;5.87;95.99;99806.83;1768887;81;21631;-82
2021/10/14 04:42:46;;;;;;;11.18;9.10;;;;;;;5.88;96.07;99807.66;1772326;79;21050;-82
2021/10/14 04:45:14;;;;;;;14.00;10.85;;;;;;;5.88;96.10;99819.15;1753904;81;21012;-82
2021/10/14 04:47:40;;;;;;;13.60;9.90;;;;;;;5.89;96.12;99819.97;1768610;80;21019;-80
2021/10/14 04:50:07;;;;;;;14.60;11.63;;;;;;;5.90;96.10;99826.41;1768685;81;21025;-79
2021/10/14 04:52:34;;;;;;;18.20;10.35;;;;;;;5.91;95.97;99828.56;1750820;80;21083;-79
2021/10/14 04:55:00;;;;;;;18.20;13.28;;;;;;;5.89;95.84;99824.80;1780718;79;21572;-82
2021/10/14 04:57:27;;;;;;;11.18;10.10;;;;;;;5.87;95.79;99834.03;1768709;79;20993;-80
2021/10/14 04:59:54;;;;;;;13.88;10.70;;;;;;;5.87;95.87;99838.04;1755380;81;21001;-79
2021/10/14 05:02:21;;;;;;;14.28;10.75;;;;;;;5.87;95.79;99844.71;1758124;79;20938;-80
2021/10/14 05:04:48;;;;;;;12.90;10.82;;;;;;;5.85;95.58;99846.77;1736608;81;21541;-77
2021/10/14 05:07:15;;;;;;;14.10;10.63;;;;;;;5.84;95.48;99845.94;1755720;81;21064;-79
2021/10/14 05:09:44;;;;;;;13.83;10.48;;;;;;;5.80;95.21;99841.25;1768752;81;21043;-78
2021/10/14 05:12:10;;;;;;;15.58;10.32;;;;;;;5.75;95.15;99863.76;1755222;81;21566;-82
2021/10/14 05:14:39;;;;;;;17.50;11.30;;;;;;;5.70;95.21;99867.89;1768972;79;21138;-83
2021/10/14 05:17:06;;;;;;;15.43;12.43;;;;;;;5.67;95.24;99862.14;1768806;80;21049;-80
2021/10/14 05:19:32;;;;;;;18.10;13.18;;;;;;;5.66;95.31;99880.00;1755354;81;21052;-84
2021/10/14 05:21:59;;;;;;;13.40;11.30;;;;;;;5.63;95.23;99871.09;1772687;79;21220;-80
2021/10/14 05:24:26;;;;;;;13.28;10.32;;;;;;;5.61;95.08;99877.69;1817245;79;21039;-80
2021/10/14 05:26:52;;;;;;;14.45;12.28;;;;;;;5.56;94.96;99884.17;1817533;79;21021;-79
2021/10/14 05:29:19;;;;;;;18.62;13.13;;;;;;;5.52;94.91;99885.09;1816877;79;21022;-78
2021/10/14 05:31:45;;;;;;;16.77;13.20;;;;;;;5.50;95.10;99879.17;1794245;79;20998;-81
2021/10/14 05:34:12;;;;;;;17.77;12.90;;;;;;;5.50;95.07;99881.84;1816983;79;20998;-78
2021/10/14 05:36:40;;;;;;;15.50;12.90;;;;;;;5.51;95.15;99882.66;1816763;79;20985;-82
2021/10/14 05:39:06;;;;;;;13.80;12.10;;;;;;;5.51;95.09;99888.81;1817335;79;20994;-78
2021/10/14 05:41:33;;;;;;;13.28;11.55;;;;;;;5.49;95.03;99893.53;1828551;77;20972;-78
2021/10/14 05:43:59;;;;;;;15.48;11.10;;;;;;;5.50;95.05;99901.84;1822315;77;21118;-80
2021/10/14 05:46:26;;;;;;;13.80;11.00;;;;;;;5.50;95.13;99903.18;1818216;79;20909;-79
2021/10/14 05:48:52;;;;;;;15.95;10.80;;;;;;;5.51;95.13;99902.16;1817414;79;21012;-78
2021/10/14 05:51:18;;;;;;;14.40;12.33;;;;;;;5.52;95.18;99905.10;1793871;79;21514;-78
2021/10/14 05:53:46;;;;;;;14.58;11.97;;;;;;;5.55;95.18;99903.36;1817134;79;20981;-80
2021/10/14 05:56:12;;;;;;;15.80;11.78;;;;;;;5.57;95.08;99913.80;1807952;79;21947;-80
2021/10/14 05:58:38;;;;;;;21.80;13.25;;;;;;;5.57;95.05;99909.29;1791501;79;21021;-78
2021/10/14 06:01:05;;;;;;;11.93;10.65;;;;;;;5.58;94.97;99923.45;1814546;79;21076;-77
2021/10/14 06:03:31;;;;;;;14.38;12.25;;;;;;;5.58;95.02;99924.78;1802991;77;21568;-81
2021/10/14 06:05:58;;;;;;;18.65;11.53;;;;;;;5.58;95.18;99941.61;1819859;77;21050;-77
2021/10/14 06:08:24;;;;;;;18.02;13.85;;;;;;;5.63;95.29;99931.13;1794019;79;20976;-79
2021/10/14 06:10:52;;;;;;;16.52;14.58;;;;;;;5.71;95.42;99934.06;1804317;79;20978;-79
2021/10/14 06:13:21;;;;;;;15.78;13.18;;;;;;;5.78;95.36;99948.20;1784916;80;20939;-79
2021/10/14 06:15:48;;;;;;;14.40;11.63;;;;;;;5.85;95.24;99932.17;1762484;80;20998;-77
2021/10/14 06:18:15;;;;;;;14.95;12.98;;;;;;;5.90;95.01;99953.19;1784753;80;21018;-76
2021/10/14 06:20:41;;;;;;;15.48;13.80;;;;;;;5.94;94.79;99936.27;1813010;79;21100;-78
2021/10/14 06:23:08;;;;;;;16.30;12.93;;;;;;;5.97;94.60;99941.98;1790400;79;20986;-80
2021/10/14 06:25:34;;;;;;;16.45;13.62;;;;;;;6.02;94.55;99956.02;1809936;79;21017;-77
2021/10/14 06:28:01;;;;;;;17.17;13.48;;;;;;;6.08;94.38;99954.66;1810026;79;21471;-79
2021/10/14 06:30:29;;;;;;;18.70;14.20;;;;;;;6.12;94.05;99952.38;1809437;79;21506;-81
2021/10/14 06:32:55;;;;;;;17.00;15.15;;;;;;;6.15;93.83;99965.28;1809495;79;21453;-78
2021/10/14 06:35:24;;;;;;;20.90;14.53;;;;;;;6.19;93.83;99971.83;1795109;79;21065;-77
2021/10/14 06:37:50;;;;;;;17.62;14.40;;;;;;;6.24;93.74;99967.18;1792288;79;20946;-78
2021/10/14 06:40:17;;;;;;;18.32;13.72;;;;;;;6.29;93.65;99977.53;1792280;79;20957;-77
2021/10/14 06:42:43;;;;;;;18.12;14.03;;;;;;;6.34;93.43;99982.22;1804850;79;21078;-77
2021/10/14 06:45:10;;;;;;;18.52;14.07;;;;;;;6.39;93.09;99970.37;1809261;79;21153;-80
2021/10/14 06:47:38;;;;;;;14.93;13.30;;;;;;;6.42;92.84;99976.13;1795580;79;20974;-77
2021/10/14 06:50:05;;;;;;;17.55;13.65;;;;;;;6.47;92.73;99973.63;1757549;80;21081;-80
2021/10/14 06:52:33;;;;;;;20.25;14.35;;;;;;;6.52;92.67;99973.77;1777181;80;21038;-79
2021/10/14 06:54:59;;;;;;;15.95;13.93;;;;;;;6.58;92.48;99986.79;1785040;79;21023;-78
2021/10/14 06:57:26;;;;;;;16.73;13.13;;;;;;;6.66;92.39;99976.37;1808943;79;20908;-80
2021/10/14 06:59:53;;;;;;;15.58;13.95;;;;;;;6.75;92.19;99974.55;1788532;79;20927;-76
2021/10/14 07:02:19;;;;;;;13.60;11.93;;;;;;;6.82;91.78;99990.00;1806844;79;21076;-76
2021/10/14 07:04:45;;;;;;;16.20;14.38;;;;;;;6.87;91.31;100006.20;1793901;79;20987;-80
2021/10/14 07:07:12;;;;;;;17.45;14.73;;;;;;;6.92;91.03;99997.02;1790068;79;21010;-78
2021/10/14 07:09:39;;;;;;;17.05;14.05;;;;;;;6.99;90.87;99991.11;1789086;79;21796;-77
2021/10/14 07:12:13;;;;;;;16.77;13.98;;;;;;;7.07;90.60;99998.53;1808006;79;20896;-75
2021/10/14 07:14:43;;;;;;;16.77;13.43;;;;;;;7.18;90.48;100009.34;1801430;79;20963;-79
2021/10/14 07:17:09;;;;;;;16.75;14.95;;;;;;;7.30;90.04;100006.75;1815558;79;21058;-80
2021/10/14 07:19:35;;;;;;;17.30;14.15;;;;;;;7.41;89.82;100001.50;1809066;79;20983;-81
2021/10/14 07:22:04;;;;;;;17.30;13.03;;;;;;;7.51;89.27;100015.70;1787799;79;21812;-83
2021/10/14 07:24:30;;;;;;;16.97;13.58;;;;;;;7.55;88.13;100008.05;1781834;79;21015;-79
2021/10/14 07:26:58;;;;;;;15.03;11.50;;;;;;;7.59;87.82;100006.55;1795124;78;20988;-77
2021/10/14 07:29:28;;;;;;;16.02;13.48;;;;;;;7.63;87.23;99996.52;1797072;78;21042;-81
2021/10/14 07:31:55;;;;;;;14.28;11.22;;;;;;;7.68;86.89;100003.36;1821607;77;21009;-82
2021/10/14 07:34:22;;;;;;;12.70;11.08;;;;;;;7.77;86.69;100006.03;1818074;78;21943;-81
2021/10/14 07:36:51;;;;;;;18.87;12.37;;;;;;;7.86;86.36;100010.59;1782257;78;21481;-85
2021/10/14 07:39:20;;;;;;;12.93;11.63;;;;;;;7.91;85.46;100002.70;1817242;78;20998;-83
2021/10/14 07:41:48;;;;;;;13.90;11.63;;;;;;;7.99;85.12;100010.94;1792523;78;21036;-83
2021/10/14 07:44:16;;;;;;;12.80;10.70;;;;;;;8.04;84.45;100006.55;1833155;77;20952;-83
2021/10/14 07:46:44;;;;;;;17.48;10.88;;;;;;;8.10;84.29;100005.66;1820724;77;21140;-87
2021/10/14 07:49:12;;;;;;;18.27;11.03;;;;;;;8.21;84.16;100009.41;1822058;78;20954;-85
2021/10/14 07:51:39;;;;;;;12.33;10.38;;;;;;;8.30;83.68;100012.09;1790562;78;20975;-86
2021/10/14 07:54:07;;;;;;;15.90;11.15;;;;;;;8.38;83.11;100016.34;1798472;78;21094;-82
2021/10/14 07:56:34;;;;;;;16.45;13.48;;;;;;;8.41;82.12;100011.33;1797715;78;20930;-83
2021/10/14 07:59:00;;;;;;;14.18;12.00;;;;;;;8.45;81.65;100016.53;1823048;77;21096;-87
2021/10/14 08:01:28;;;;;;;16.05;11.10;;;;;;;8.49;81.64;100027.63;1822396;77;20947;-89
2021/10/14 08:03:57;;;;;;;13.45;11.20;;;;;;;8.53;81.30;100028.28;1822025;78;20978;-86
2021/10/14 08:06:24;;;;;;;16.48;12.63;;;;;;;8.59;81.05;100023.33;1829035;77;21035;-85
2021/10/14 08:08:50;;;;;;;20.57;13.98;;;;;;;8.61;80.25;100032.50;1831337;77;21495;-84
2021/10/14 08:11:17;;;;;;;15.15;12.90;;;;;;;8.62;80.02;100026.91;1796810;78;21231;-83
2021/10/14 08:13:43;;;;;;;16.57;12.78;;;;;;;8.64;79.64;100036.87;1821999;78;21501;-83
2021/10/14 08:16:12;;;;;;;15.75;11.65;;;;;;;8.62;79.63;100036.30;1796855;78;20934;-83
2021/10/14 08:18:40;;;;;;;15.80;12.35;;;;;;;8.63;79.45;100044.61;1822180;78;21070;-80
2021/10/14 08:21:06;;;;;;;17.23;12.00;;;;;;;8.64;79.07;100027.48;1832456;77;21015;-79
2021/10/14 08:23:34;;;;;;;16.97;13.08;;;;;;;8.69;78.86;100032.16;1802485;78;20970;-82
2021/10/14 08:26:00;;;;;;;16.48;11.28;;;;;;;8.75;78.90;100032.59;1796113;78;20915;-85
2021/10/14 08:28:27;;;;;;;14.35;12.23;;;;;;;8.80;78.46;100035.41;1800047;78;20896;-83
2021/10/14 08:30:54;;;;;;;13.93;11.20;;;;;;;8.83;78.28;100047.00;1820726;78;21026;-83
2021/10/14 08:33:21;;;;;;;13.83;11.12;;;;;;;8.88;77.86;100060.55;1796478;78;21014;-79
2021/10/14 08:35:47;;;;;;;18.07;12.23;;;;;;;8.90;76.62;100045.05;1822985;77;21272;-83
2021/10/14 08:38:14;;;;;;;16.50;11.68;;;;;;;8.93;76.16;100043.76;1823428;77;20987;-80
2021/10/14 08:40:40;;;;;;;12.13;10.90;;;;;;;8.96;75.86;100042.80;1823932;77;21526;-80
2021/10/14 08:43:13;;;;;;;15.43;12.25;;;;;;;8.98;74.98;100048.73;1811823;78;21033;-83
2021/10/14 08:45:42;;;;;;;13.58;11.28;;;;;;;9.01;75.25;100041.58;1813392;77;21042;-80
2021/10/14 08:48:10;;;;;;;18.37;10.40;;;;;;;9.06;75.69;100047.59;1807848;78;21120;-81
2021/10/14 08:50:41;;;;;;;14.33;11.18;;;;;;;9.13;75.20;100048.29;1819498;78;21074;-80
2021/10/14 08:53:07;;;;;;;17.40;11.35;;;;;;;9.18;74.80;100045.21;1819809;78;21665;-79
2021/10/14 08:55:38;;;;;;;13.25;10.80;;;;;;;9.26;73.93;100057.45;1819999;77;21512;-80
2021/10/14 08:58:08;;;;;;;11.93;9.58;;;;;;;9.34;73.79;100046.39;1819932;78;21049;-81
2021/10/14 09:00:37;;;;;;;10.38;9.38;;;;;;;9.43;73.54;100064.31;1819662;78;21484;-80
2021/10/14 09:03:26;;;;;;;12.10;10.78;;;;;;;9.50;73.18;100049.70;1819332;78;20999;-81
2021/10/14 09:05:54;;;;;;;12.70;9.70;;;;;;;9.57;72.61;100052.28;1820350;78;21100;-81
2021/10/14 09:08:37;;;;;;;11.57;10.38;;;;;;;9.62;72.25;100061.80;1820456;78;20927;-83
2021/10/14 09:11:10;;;;;;;10.82;8.98;;;;;;;9.66;72.39;100066.98;1819554;77;21012;-79
2021/10/14 09:13:39;;;;;;;14.65;9.08;;;;;;;9.73;72.04;100063.67;1825314;77;21047;-77
2021/10/14 09:16:34;;;;;;;10.03;8.48;;;;;;;9.78;71.45;100069.16;1802064;77;21039;-80
2021/10/14 09:19:22;;;;;;;9.85;8.50;;;;;;;9.86;71.20;100084.91;1822463;77;21037;-76
2021/10/14 09:21:59;;;;;;;11.20;9.23;;;;;;;9.90;69.93;100084.72;1829014;77;20968;-80
2021/10/14 09:24:39;;;;;;;10.15;8.30;;;;;;;9.89;69.85;100080.91;1791850;78;21001;-78
2021/10/14 09:27:08;;;;;;;10.03;8.68;;;;;;;9.92;70.24;100084.49;1805364;77;21069;-79
2021/10/14 09:29:37;;;;;;;9.80;8.40;;;;;;;9.95;69.71;100079.45;1806090;77;20909;-78
2021/10/14 09:32:15;;;;;;;11.20;7.78;;;;;;;9.97;69.08;100075.20;1794497;77;21037;-80
2021/10/14 09:34:42;;;;;;;10.53;8.65;;;;;;;9.98;68.87;100079.49;1825871;77;20981;-80
2021/10/14 09:37:21;;;;;;;13.78;9.33;;;;;;;9.98;68.45;100089.72;1823820;77;21511;-80
2021/10/14 09:40:05;;;;;;;9.63;8.65;;;;;;;9.97;67.94;100076.55;1819915;78;21563;-81
2021/10/14 09:43:00;;;;;;;10.28;7.87;;;;;;;10.00;68.14;100088.97;1838421;77;21573;-78
2021/10/14 09:45:33;;;;;;;8.23;7.37;;;;;;;10.04;67.71;100079.91;1829291;77;21025;-79
2021/10/14 09:48:11;;;;;;;9.88;7.90;;;;;;;10.13;67.80;100083.03;1804596;77;21546;-79
2021/10/14 09:50:41;;;;;;;13.22;7.87;;;;;;;10.22;67.68;100074.39;1817455;77;21062;-87
2021/10/14 09:53:14;;;;;;;11.08;7.85;;;;;;;10.31;67.31;100072.95;1826269;77;21042;-84
2021/10/14 09:55:41;;;;;;;11.28;8.68;;;;;;;10.39;66.58;100082.02;1800630;77;21139;-78
2021/10/14 09:58:07;;;;;;;12.45;8.58;;;;;;;10.43;66.37;100079.66;1827537;77;20954;-80
2021/10/14 10:00:37;;;;;;;12.07;9.53;;;;;;;10.43;64.84;100092.58;1846973;77;21232;-77
2021/10/14 10:03:08;;;;;;;10.75;8.13;;;;;;;10.43;65.16;100081.83;1815869;77;20992;-79
2021/10/14 10:05:36;;;;;;;11.12;10.03;;;;;;;10.45;65.56;100089.66;1819131;77;21887;-81
2021/10/14 10:08:08;;;;;;;11.38;8.68;;;;;;;10.47;65.15;100097.77;1814179;77;20976;-79
2021/10/14 10:10:33;;;;;;;9.60;8.03;;;;;;;10.46;64.74;100106.88;1834475;77;21547;-88
2021/10/14 10:13:01;;;;;;;10.43;7.05;;;;;;;10.43;64.88;100096.61;1767603;77;21049;-77
2021/10/14 10:15:47;;;;;;;7.78;7.08;;;;;;;10.45;64.75;100095.83;1798716;77;21038;-77
2021/10/14 10:18:38;;;;;;;12.30;6.47;;;;;;;10.48;64.96;100087.30;1819844;78;21903;-81
2021/10/14 10:21:06;;;;;;;8.83;6.72;;;;;;;10.55;64.36;100111.91;1796741;77;21014;-81
2021/10/14 10:23:47;;;;;;;11.00;7.37;;;;;;;10.56;64.50;100108.13;1829792;77;20944;-84
2021/10/14 10:26:38;;;;;;;9.88;7.40;;;;;;;10.55;64.64;100107.31;1838644;77;20992;-80
2021/10/14 10:29:23;;;;;;;9.38;7.33;;;;;;;10.56;64.99;100110.30;1829597;77;21480;-81
2021/10/14 10:31:55;;;;;;;12.03;7.62;;;;;;;10.61;65.31;100116.30;1829957;77;21154;-82
2021/10/14 10:37:38;;;;;;;9.30;7.72;;;;;;;10.75;65.46;100118.99;1831112;77;21600;-84
2021/10/14 10:40:16;;;;;;;9.70;8.68;;;;;;;10.86;65.09;100114.09;1821289;77;21503;-81
2021/10/14 10:43:03;;;;;;;10.65;7.28;;;;;;;10.93;64.64;100117.47;1800953;77;21078;-76
2021/10/14 10:45:43;;;;;;;12.10;8.05;;;;;;;10.99;64.27;100128.59;1808847;77;21904;-90
2021/10/14 10:48:10;;;;;;;8.55;7.42;;;;;;;11.01;63.32;100127.84;1804813;77;21065;-85
2021/10/14 10:50:44;;;;;;;12.47;7.87;;;;;;;11.03;63.29;100128.39;1827974;77;21023;-80
2021/10/14 10:53:16;;;;;;;13.08;7.92;;;;;;;11.07;63.42;100126.06;1800539;78;21542;-71
2021/10/14 10:55:56;;;;;;;13.80;9.15;;;;;;;11.15;63.40;100130.52;1796611;78;21057;-79
2021/10/14 10:58:49;;;;;;;8.30;7.55;;;;;;;11.15;62.00;100145.32;1819116;77;22275;-78
2021/10/14 11:01:17;;;;;;;10.13;7.20;;;;;;;11.10;61.83;100137.16;1796088;77;21074;-77
2021/10/14 11:04:02;;;;;;;10.05;8.18;;;;;;;11.03;61.42;100145.10;1819929;78;21016;-78
2021/10/14 11:06:33;;;;;;;10.53;7.22;;;;;;;10.94;61.93;100141.95;1819002;77;21038;-85
2021/10/14 11:09:06;;;;;;;10.35;7.95;;;;;;;10.86;62.47;100135.63;1796697;78;20919;-79
2021/10/14 11:11:34;;;;;;;9.60;7.87;;;;;;;10.79;63.09;100142.48;1830248;77;21713;-81
2021/10/14 11:14:02;;;;;;;10.72;9.38;;;;;;;10.76;63.29;100141.63;1824091;77;21054;-91
2021/10/14 11:16:30;;;;;;;11.22;8.70;;;;;;;10.72;63.70;100135.63;1833571;77;20962;-85
2021/10/14 11:18:58;;;;;;;11.57;9.85;;;;;;;10.68;64.28;100143.89;1796483;77;21539;-81
2021/10/14 11:21:25;;;;;;;12.50;10.40;;;;;;;10.65;64.66;100141.66;1800412;77;21515;-76
2021/10/14 11:23:56;;;;;;;14.23;11.22;;;;;;;10.68;65.04;100139.86;1824666;77;21201;-79
2021/10/14 11:26:34;;;;;;;12.75;10.28;;;;;;;10.68;65.35;100151.44;1835248;77;21085;-86
2021/10/14 11:29:17;;;;;;;13.62;10.38;;;;;;;10.70;65.70;100153.88;1797764;77;21014;-80
2021/10/14 11:31:56;;;;;;;13.70;10.98;;;;;;;10.72;66.05;100155.80;1825062;77;21031;-92
2021/10/14 11:34:22;;;;;;;13.80;10.50;;;;;;;10.73;66.31;100160.13;1823560;77;21513;-81